createdAt,value
2023-03-19T00:00:12.751Z,0.00
2023-03-19T00:01:12.741Z,0.00
2023-03-19T00:02:17.920Z,0.00
2023-03-19T00:03:13.749Z,0.00
2023-03-19T00:04:12.687Z,0.00
2023-03-19T00:05:12.674Z,0.00
2023-03-19T00:06:12.671Z,0.00
2023-03-19T00:07:12.678Z,0.00
2023-03-19T00:08:12.682Z,0.00
2023-03-19T00:09:12.631Z,0.00
2023-03-19T00:10:12.631Z,0.00
2023-03-19T00:11:12.609Z,0.00
2023-03-19T00:12:12.608Z,0.00
2023-03-19T00:13:12.625Z,0.00
2023-03-19T00:14:12.610Z,0.00
2023-03-19T00:15:12.570Z,0.00
2023-03-19T00:16:12.692Z,0.00
2023-03-19T00:17:12.548Z,0.00
2023-03-19T00:18:12.538Z,0.00
2023-03-19T00:19:12.556Z,0.00
2023-03-19T00:20:12.574Z,0.00
2023-03-19T00:21:12.505Z,0.00
2023-03-19T00:22:12.501Z,0.00
2023-03-19T00:23:12.494Z,0.00
2023-03-19T00:24:12.475Z,0.00
2023-03-19T00:25:12.518Z,0.00
2023-03-19T00:26:12.468Z,0.00
2023-03-19T00:27:12.442Z,0.00
2023-03-19T00:28:12.434Z,0.00
2023-03-19T00:29:12.432Z,0.00
2023-03-19T00:30:12.422Z,0.00
2023-03-19T00:31:12.516Z,0.00
2023-03-19T00:32:12.417Z,0.00
2023-03-19T00:33:12.522Z,0.00
2023-03-19T00:34:12.384Z,0.00
2023-03-19T00:35:12.352Z,0.00
2023-03-19T00:36:12.384Z,0.00
2023-03-19T00:37:12.359Z,0.00
2023-03-19T00:38:12.326Z,0.00
2023-03-19T00:39:12.310Z,0.00
2023-03-19T00:40:12.326Z,0.00
2023-03-19T00:41:12.314Z,0.00
2023-03-19T00:42:12.291Z,0.00
2023-03-19T00:43:12.308Z,0.00
2023-03-19T00:44:12.258Z,0.00
2023-03-19T00:45:12.263Z,0.00
2023-03-19T00:46:12.267Z,0.00
2023-03-19T00:47:12.229Z,0.00
2023-03-19T00:48:12.239Z,0.00
2023-03-19T00:49:12.228Z,0.00
2023-03-19T00:50:12.205Z,0.00
2023-03-19T00:51:12.185Z,0.00
2023-03-19T00:52:12.170Z,0.00
2023-03-19T00:53:12.186Z,0.00
2023-03-19T00:54:12.153Z,0.00
2023-03-19T00:55:12.176Z,0.00
2023-03-19T00:56:12.131Z,0.00
2023-03-19T00:57:12.136Z,0.00
2023-03-19T00:58:12.141Z,0.00
2023-03-19T00:59:12.132Z,0.00
2023-03-19T01:00:12.101Z,0.00
2023-03-19T01:01:12.139Z,0.00
2023-03-19T01:02:12.109Z,0.00
2023-03-19T01:03:12.068Z,0.00
2023-03-19T01:04:12.150Z,0.00
2023-03-19T01:05:12.060Z,0.00
2023-03-19T01:06:12.059Z,0.00
2023-03-19T01:07:12.053Z,0.00
2023-03-19T01:08:11.991Z,0.00
2023-03-19T01:09:11.999Z,0.00
2023-03-19T01:10:11.974Z,0.00
2023-03-19T01:11:11.964Z,0.00
2023-03-19T01:12:11.948Z,0.00
2023-03-19T01:13:11.961Z,0.00
2023-03-19T01:14:11.945Z,0.00
2023-03-19T01:15:11.944Z,0.00
2023-03-19T01:16:11.917Z,0.00
2023-03-19T01:17:11.907Z,0.00
2023-03-19T01:18:11.890Z,0.00
2023-03-19T01:19:11.918Z,0.00
2023-03-19T01:20:11.886Z,0.00
2023-03-19T01:21:11.855Z,0.00
2023-03-19T01:22:11.845Z,0.00
2023-03-19T01:27:53.133Z,0.00
2023-03-19T01:28:53.097Z,0.00
2023-03-19T01:29:53.085Z,0.00
2023-03-19T01:30:53.168Z,0.00
2023-03-19T01:31:53.062Z,0.00
2023-03-19T01:32:53.114Z,0.00
2023-03-19T01:33:53.056Z,0.00
2023-03-19T01:34:53.049Z,0.00
2023-03-19T01:35:53.116Z,0.00
2023-03-19T01:36:53.015Z,0.00
2023-03-19T01:37:53.021Z,0.00
2023-03-19T01:38:53.006Z,0.00
2023-03-19T01:39:52.975Z,0.00
2023-03-19T01:40:52.969Z,0.00
2023-03-19T01:41:52.965Z,0.00
2023-03-19T01:42:52.981Z,0.00
2023-03-19T01:43:52.932Z,0.00
2023-03-19T01:44:52.939Z,0.00
2023-03-19T01:45:52.924Z,0.00
2023-03-19T01:46:52.903Z,0.00
2023-03-19T01:47:52.892Z,0.00
2023-03-19T01:48:52.909Z,0.00
2023-03-19T01:49:52.876Z,0.00
2023-03-19T01:50:52.876Z,0.00
2023-03-19T01:51:52.875Z,0.00
2023-03-19T01:52:52.837Z,0.00
2023-03-19T01:53:52.839Z,0.00
2023-03-19T01:54:52.830Z,0.00
2023-03-19T01:55:52.807Z,0.00
2023-03-19T01:56:52.810Z,0.00
2023-03-19T01:57:52.780Z,0.00
2023-03-19T01:58:52.776Z,0.00
2023-03-19T01:59:52.760Z,0.00
2023-03-19T02:00:52.770Z,0.00
2023-03-19T02:01:52.828Z,0.00
2023-03-19T02:02:52.730Z,0.00
2023-03-19T02:03:52.725Z,0.00
2023-03-19T02:04:52.775Z,0.00
2023-03-19T02:05:52.695Z,0.00
2023-03-19T02:06:52.719Z,0.00
2023-03-19T02:07:52.692Z,0.00
2023-03-19T02:08:52.664Z,0.00
2023-03-19T02:09:52.651Z,0.00
2023-03-19T02:10:52.667Z,0.00
2023-03-19T02:11:52.640Z,0.00
2023-03-19T02:12:52.655Z,0.00
2023-03-19T02:13:52.611Z,0.00
2023-03-19T02:14:52.598Z,0.00
2023-03-19T02:15:52.631Z,0.00
2023-03-19T02:16:52.596Z,0.00
2023-03-19T02:17:52.568Z,0.00
2023-03-19T02:18:52.572Z,0.00
2023-03-19T02:19:52.543Z,0.00
2023-03-19T02:20:52.536Z,0.00
2023-03-19T02:21:52.524Z,0.00
2023-03-19T02:22:52.523Z,0.00
2023-03-19T02:23:52.520Z,0.00
2023-03-19T02:24:52.513Z,0.00
2023-03-19T02:25:52.514Z,0.00
2023-03-19T02:26:52.484Z,0.00
2023-03-19T02:27:52.471Z,0.00
2023-03-19T02:28:52.446Z,0.00
2023-03-19T02:29:52.440Z,0.00
2023-03-19T02:30:52.446Z,0.00
2023-03-19T02:31:52.412Z,0.00
2023-03-19T02:32:52.449Z,0.00
2023-03-19T02:33:52.400Z,0.00
2023-03-19T02:34:52.386Z,0.00
2023-03-19T02:35:52.480Z,0.00
2023-03-19T02:36:52.397Z,0.00
2023-03-19T02:37:52.348Z,0.00
2023-03-19T02:38:52.339Z,0.00
2023-03-19T02:39:52.358Z,0.00
2023-03-19T02:40:52.319Z,0.00
2023-03-19T02:41:52.304Z,0.00
2023-03-19T02:42:52.322Z,0.00
2023-03-19T02:43:52.294Z,0.00
2023-03-19T02:44:52.277Z,0.00
2023-03-19T02:45:52.260Z,0.00
2023-03-19T02:46:52.298Z,0.00
2023-03-19T02:47:52.239Z,0.00
2023-03-19T02:48:52.271Z,0.00
2023-03-19T02:49:52.221Z,0.00
2023-03-19T02:50:52.219Z,0.00
2023-03-19T02:51:52.206Z,0.00
2023-03-19T02:52:52.180Z,0.00
2023-03-19T02:53:52.175Z,0.00
2023-03-19T02:54:52.211Z,0.00
2023-03-19T02:55:52.195Z,0.00
2023-03-19T02:56:52.142Z,0.00
2023-03-19T02:57:52.131Z,0.00
2023-03-19T02:58:52.134Z,0.00
2023-03-19T02:59:52.120Z,0.00
2023-03-19T03:00:52.208Z,0.00
2023-03-19T03:01:52.287Z,0.00
2023-03-19T03:02:52.081Z,0.00
2023-03-19T03:03:52.072Z,0.00
2023-03-19T03:04:52.073Z,0.00
2023-03-19T03:05:52.054Z,0.00
2023-03-19T03:06:52.058Z,0.00
2023-03-19T03:07:52.032Z,0.00
2023-03-19T03:08:52.028Z,0.00
2023-03-19T03:09:52.010Z,0.00
2023-03-19T03:10:52.009Z,0.00
2023-03-19T03:11:52.009Z,0.00
2023-03-19T03:12:51.989Z,0.00
2023-03-19T03:13:51.968Z,0.00
2023-03-19T03:14:51.961Z,0.00
2023-03-19T03:15:51.959Z,0.00
2023-03-19T03:16:51.934Z,0.00
2023-03-19T03:17:51.927Z,0.00
2023-03-19T03:18:51.925Z,0.00
2023-03-19T03:19:51.903Z,0.00
2023-03-19T03:20:51.893Z,0.00
2023-03-19T03:21:51.895Z,0.00
2023-03-19T03:22:51.876Z,0.00
2023-03-19T03:23:51.864Z,0.00
2023-03-19T03:24:51.862Z,0.00
2023-03-19T03:25:51.842Z,0.00
2023-03-19T03:26:51.833Z,0.00
2023-03-19T03:27:51.853Z,0.00
2023-03-19T03:28:51.820Z,0.00
2023-03-19T03:29:51.800Z,0.00
2023-03-19T03:30:51.806Z,0.00
2023-03-19T03:31:51.893Z,0.00
2023-03-19T03:32:51.800Z,0.00
2023-03-19T03:33:51.783Z,0.00
2023-03-19T03:34:51.774Z,0.00
2023-03-19T03:35:51.758Z,0.00
2023-03-19T03:36:51.746Z,0.00
2023-03-19T03:37:51.727Z,0.00
2023-03-19T03:38:51.700Z,0.00
2023-03-19T03:39:51.700Z,0.00
2023-03-19T03:40:51.695Z,0.00
2023-03-19T03:41:51.688Z,0.00
2023-03-19T03:42:51.657Z,0.00
2023-03-19T03:43:51.669Z,0.00
2023-03-19T03:44:51.634Z,0.00
2023-03-19T03:45:51.722Z,0.00
2023-03-19T03:46:51.623Z,0.00
2023-03-19T03:47:51.640Z,0.00
2023-03-19T03:48:51.598Z,0.00
2023-03-19T03:49:51.585Z,0.00
2023-03-19T03:50:51.596Z,0.00
2023-03-19T03:51:51.573Z,0.00
2023-03-19T03:52:51.557Z,0.00
2023-03-19T03:53:51.566Z,0.00
2023-03-19T03:54:51.530Z,0.00
2023-03-19T03:55:51.520Z,0.00
2023-03-19T03:56:51.513Z,0.00
2023-03-19T03:57:51.498Z,0.00
2023-03-19T03:58:51.513Z,0.00
2023-03-19T03:59:51.504Z,0.00
2023-03-19T04:00:51.470Z,0.00
2023-03-19T04:01:51.510Z,0.00
2023-03-19T04:02:51.480Z,0.00
2023-03-19T04:03:51.447Z,0.00
2023-03-19T04:04:51.432Z,0.00
2023-03-19T04:05:51.444Z,0.00
2023-03-19T04:06:51.399Z,0.00
2023-03-19T04:07:51.393Z,0.00
2023-03-19T04:08:51.377Z,0.00
2023-03-19T04:09:51.369Z,0.00
2023-03-19T04:10:51.370Z,0.00
2023-03-19T04:11:51.653Z,0.00
2023-03-19T04:12:51.349Z,0.00
2023-03-19T04:13:51.326Z,0.00
2023-03-19T04:14:51.314Z,0.00
2023-03-19T04:15:51.341Z,0.00
2023-03-19T04:16:51.351Z,0.00
2023-03-19T04:17:51.317Z,0.00
2023-03-19T04:18:51.269Z,0.00
2023-03-19T04:19:51.267Z,0.00
2023-03-19T04:20:51.250Z,0.00
2023-03-19T04:21:51.242Z,0.00
2023-03-19T04:22:51.230Z,0.00
2023-03-19T04:23:51.265Z,0.00
2023-03-19T04:24:51.206Z,0.00
2023-03-19T04:25:51.201Z,0.00
2023-03-19T04:26:51.185Z,0.00
2023-03-19T04:27:51.178Z,0.00
2023-03-19T04:28:51.179Z,0.00
2023-03-19T04:29:51.176Z,0.00
2023-03-19T04:30:51.200Z,0.00
2023-03-19T04:31:51.164Z,0.00
2023-03-19T04:32:51.163Z,0.00
2023-03-19T04:33:51.113Z,0.00
2023-03-19T04:34:51.100Z,0.00
2023-03-19T04:35:51.153Z,0.00
2023-03-19T04:36:51.103Z,0.00
2023-03-19T04:37:51.072Z,0.00
2023-03-19T04:38:51.057Z,0.00
2023-03-19T04:39:51.050Z,0.00
2023-03-19T04:40:51.034Z,0.00
2023-03-19T04:41:51.041Z,0.00
2023-03-19T04:42:51.029Z,0.00
2023-03-19T04:43:51.005Z,0.00
2023-03-19T04:44:50.989Z,0.00
2023-03-19T04:45:51.028Z,0.00
2023-03-19T04:46:50.969Z,0.00
2023-03-19T04:47:51.084Z,0.00
2023-03-19T04:48:50.948Z,0.00
2023-03-19T04:49:50.939Z,0.00
2023-03-19T04:50:50.927Z,0.00
2023-03-19T04:51:50.928Z,0.00
2023-03-19T04:52:50.905Z,0.00
2023-03-19T04:53:50.936Z,0.00
2023-03-19T04:54:50.885Z,0.00
2023-03-19T04:55:50.874Z,0.00
2023-03-19T04:56:50.873Z,0.00
2023-03-19T04:57:50.859Z,0.00
2023-03-19T04:58:50.839Z,0.00
2023-03-19T04:59:50.859Z,0.00
2023-03-19T05:00:50.816Z,0.00
2023-03-19T05:01:50.811Z,0.00
2023-03-19T05:02:50.795Z,0.00
2023-03-19T05:03:51.081Z,0.00
2023-03-19T05:04:50.773Z,0.00
2023-03-19T05:05:50.803Z,0.00
2023-03-19T05:06:50.752Z,0.00
2023-03-19T05:07:50.744Z,0.00
2023-03-19T05:08:50.733Z,0.00
2023-03-19T05:09:50.748Z,0.00
2023-03-19T05:10:50.715Z,0.00
2023-03-19T05:11:50.732Z,0.00
2023-03-19T05:12:50.689Z,0.00
2023-03-19T05:13:50.691Z,0.00
2023-03-19T05:14:50.665Z,0.00
2023-03-19T05:15:50.696Z,0.00
2023-03-19T05:16:50.649Z,0.00
2023-03-19T05:17:50.669Z,0.00
2023-03-19T05:18:50.670Z,0.00
2023-03-19T05:19:50.642Z,0.00
2023-03-19T05:20:50.614Z,0.00
2023-03-19T05:21:50.599Z,0.00
2023-03-19T05:22:50.580Z,0.00
2023-03-19T05:23:50.598Z,0.00
2023-03-19T05:24:50.558Z,0.00
2023-03-19T05:25:50.564Z,0.00
2023-03-19T05:26:50.553Z,5.62
2023-03-19T05:27:50.542Z,5.62
2023-03-19T05:28:50.531Z,5.62
2023-03-19T05:29:50.543Z,5.62
2023-03-19T05:30:50.521Z,5.62
2023-03-19T05:31:50.500Z,5.62
2023-03-19T05:32:50.513Z,11.25
2023-03-19T05:33:50.464Z,11.25
2023-03-19T05:34:50.449Z,11.25
2023-03-19T05:35:50.505Z,16.88
2023-03-19T05:36:50.435Z,16.88
2023-03-19T05:37:50.448Z,22.50
2023-03-19T05:38:50.409Z,22.50
2023-03-19T05:39:50.401Z,28.12
2023-03-19T05:40:50.385Z,33.75
2023-03-19T05:41:50.387Z,33.75
2023-03-19T05:42:50.376Z,39.38
2023-03-19T05:43:50.355Z,45.00
2023-03-19T05:44:50.343Z,45.00
2023-03-19T05:45:50.343Z,45.00
2023-03-19T05:46:50.381Z,45.00
2023-03-19T05:47:50.376Z,50.62
2023-03-19T05:48:50.322Z,56.25
2023-03-19T05:49:50.292Z,56.25
2023-03-19T05:50:50.277Z,61.88
2023-03-19T05:51:50.290Z,67.50
2023-03-19T05:52:50.258Z,73.12
2023-03-19T05:53:50.273Z,73.12
2023-03-19T05:54:50.232Z,78.75
2023-03-19T05:55:50.229Z,84.38
2023-03-19T05:56:50.212Z,90.00
2023-03-19T05:57:50.205Z,95.62
2023-03-19T05:58:50.211Z,95.62
2023-03-19T05:59:50.198Z,101.25
2023-03-19T06:00:50.179Z,106.88
2023-03-19T06:01:50.204Z,112.50
2023-03-19T06:02:50.200Z,118.12
2023-03-19T06:03:50.238Z,123.75
2023-03-19T06:04:50.125Z,129.38
2023-03-19T06:05:50.139Z,135.00
2023-03-19T06:06:50.113Z,140.62
2023-03-19T06:07:50.116Z,146.25
2023-03-19T06:08:50.081Z,151.88
2023-03-19T06:09:50.082Z,157.50
2023-03-19T06:10:50.074Z,157.50
2023-03-19T06:11:50.066Z,163.12
2023-03-19T06:12:50.046Z,174.38
2023-03-19T06:13:50.073Z,180.00
2023-03-19T06:14:50.084Z,185.62
2023-03-19T06:15:50.101Z,191.25
2023-03-19T06:16:50.040Z,196.88
2023-03-19T06:17:50.052Z,202.50
2023-03-19T06:18:49.973Z,208.12
2023-03-19T06:19:49.962Z,208.12
2023-03-19T06:20:49.951Z,213.75
2023-03-19T06:21:49.942Z,219.38
2023-03-19T06:22:49.945Z,219.38
2023-03-19T06:23:49.945Z,219.38
2023-03-19T06:24:49.913Z,219.38
2023-03-19T06:25:49.897Z,225.00
2023-03-19T06:26:49.885Z,225.00
2023-03-19T06:27:49.878Z,230.62
2023-03-19T06:28:49.891Z,236.25
2023-03-19T06:29:49.885Z,236.25
2023-03-19T06:30:49.843Z,241.88
2023-03-19T06:31:49.881Z,247.50
2023-03-19T06:32:49.876Z,253.12
2023-03-19T06:33:49.817Z,258.75
2023-03-19T06:34:49.813Z,258.75
2023-03-19T06:35:49.836Z,253.12
2023-03-19T06:36:49.785Z,253.12
2023-03-19T06:37:49.780Z,253.12
2023-03-19T06:38:49.770Z,253.12
2023-03-19T06:39:49.778Z,247.50
2023-03-19T06:40:49.738Z,241.88
2023-03-19T06:41:49.747Z,241.88
2023-03-19T06:42:49.719Z,241.88
2023-03-19T06:43:49.710Z,247.50
2023-03-19T06:44:52.315Z,236.25
2023-03-19T06:45:49.781Z,241.88
2023-03-19T06:46:49.681Z,286.88
2023-03-19T06:47:51.690Z,348.75
2023-03-19T06:48:49.670Z,416.25
2023-03-19T06:49:49.660Z,427.50
2023-03-19T06:50:49.635Z,416.25
2023-03-19T06:51:49.629Z,472.50
2023-03-19T06:52:49.613Z,686.25
2023-03-19T06:53:49.638Z,697.50
2023-03-19T06:54:49.592Z,731.25
2023-03-19T06:55:49.605Z,736.88
2023-03-19T06:56:49.568Z,759.38
2023-03-19T06:57:49.564Z,765.00
2023-03-19T06:58:49.546Z,753.75
2023-03-19T06:59:49.569Z,753.75
2023-03-19T07:00:49.534Z,731.25
2023-03-19T07:01:49.518Z,725.62
2023-03-19T07:02:49.536Z,691.88
2023-03-19T07:03:49.526Z,691.88
2023-03-19T07:04:49.478Z,663.75
2023-03-19T07:05:49.484Z,669.38
2023-03-19T07:06:49.462Z,725.62
2023-03-19T07:07:49.450Z,759.38
2023-03-19T07:08:49.449Z,815.62
2023-03-19T07:09:49.425Z,871.88
2023-03-19T07:10:49.429Z,871.88
2023-03-19T07:11:49.440Z,866.25
2023-03-19T07:12:49.397Z,894.38
2023-03-19T07:13:49.379Z,855.00
2023-03-19T07:14:49.381Z,849.38
2023-03-19T07:15:49.359Z,855.00
2023-03-19T07:16:49.420Z,843.75
2023-03-19T07:17:49.358Z,894.38
2023-03-19T07:18:49.329Z,905.62
2023-03-19T07:19:49.330Z,945.00
2023-03-19T07:20:49.313Z,984.38
2023-03-19T07:21:49.294Z,967.50
2023-03-19T07:22:49.289Z,967.50
2023-03-19T07:23:49.297Z,1006.88
2023-03-19T07:24:49.267Z,1001.25
2023-03-19T07:25:49.263Z,956.25
2023-03-19T07:26:49.250Z,978.75
2023-03-19T07:27:49.248Z,1068.75
2023-03-19T07:28:49.218Z,1119.38
2023-03-19T07:29:49.233Z,1080.00
2023-03-19T07:30:49.213Z,1057.50
2023-03-19T07:31:49.238Z,1141.88
2023-03-19T07:32:49.202Z,1125.00
2023-03-19T07:33:49.166Z,1113.75
2023-03-19T07:34:49.162Z,1108.12
2023-03-19T07:35:49.206Z,1136.25
2023-03-19T07:36:49.149Z,1192.50
2023-03-19T07:37:49.119Z,1113.75
2023-03-19T07:38:49.124Z,1125.00
2023-03-19T07:39:49.105Z,1147.50
2023-03-19T07:41:01.413Z,1130.62
2023-03-19T07:41:50.088Z,1175.62
2023-03-19T07:42:49.070Z,1198.12
2023-03-19T07:43:49.089Z,1293.75
2023-03-19T07:44:49.052Z,1299.38
2023-03-19T07:45:49.077Z,1282.50
2023-03-19T07:46:49.023Z,1299.38
2023-03-19T07:47:50.339Z,1333.12
2023-03-19T07:48:49.004Z,1423.12
2023-03-19T07:49:49.000Z,1411.88
2023-03-19T07:50:49.002Z,1338.75
2023-03-19T07:51:49.009Z,1361.25
2023-03-19T07:52:49.112Z,1378.12
2023-03-19T07:53:49.022Z,1355.62
2023-03-19T07:54:48.940Z,1372.50
2023-03-19T07:55:49.118Z,1350.00
2023-03-19T07:56:48.914Z,1372.50
2023-03-19T07:57:48.902Z,1428.75
2023-03-19T07:58:48.929Z,1411.88
2023-03-19T07:59:49.203Z,1389.38
2023-03-19T08:00:48.907Z,1434.38
2023-03-19T08:01:48.924Z,1417.50
2023-03-19T08:02:48.885Z,1327.50
2023-03-19T08:03:48.837Z,1305.00
2023-03-19T08:04:48.873Z,1383.75
2023-03-19T08:05:48.827Z,1462.50
2023-03-19T08:06:48.803Z,1530.00
2023-03-19T08:07:48.805Z,1501.88
2023-03-19T08:08:48.783Z,1608.75
2023-03-19T08:09:48.768Z,1715.62
2023-03-19T08:10:48.772Z,1620.00
2023-03-19T08:11:48.760Z,1445.62
2023-03-19T08:12:48.749Z,1451.25
2023-03-19T08:13:48.734Z,1586.25
2023-03-19T08:14:48.719Z,1552.50
2023-03-19T08:15:48.740Z,1558.12
2023-03-19T08:16:48.737Z,1501.88
2023-03-19T08:17:48.693Z,1535.62
2023-03-19T08:18:50.288Z,1648.12
2023-03-19T08:19:48.659Z,1586.25
2023-03-19T08:20:48.658Z,1530.00
2023-03-19T08:21:48.637Z,1507.50
2023-03-19T08:22:48.647Z,1378.12
2023-03-19T08:23:48.637Z,1299.38
2023-03-19T08:24:48.681Z,1276.88
2023-03-19T08:25:48.613Z,1361.25
2023-03-19T08:26:48.627Z,1496.25
2023-03-19T08:27:48.572Z,1569.38
2023-03-19T08:28:48.566Z,1535.62
2023-03-19T08:29:48.565Z,1575.00
2023-03-19T08:30:48.559Z,1620.00
2023-03-19T08:31:48.569Z,1614.38
2023-03-19T08:32:48.553Z,1490.62
2023-03-19T08:33:48.505Z,1372.50
2023-03-19T08:34:49.741Z,1648.12
2023-03-19T08:35:48.515Z,1704.38
2023-03-19T08:36:48.476Z,1310.62
2023-03-19T08:37:48.477Z,860.62
2023-03-19T08:38:48.452Z,900.00
2023-03-19T08:39:48.439Z,956.25
2023-03-19T08:40:48.452Z,905.62
2023-03-19T08:41:48.433Z,990.00
2023-03-19T08:42:48.411Z,1693.12
2023-03-19T08:43:48.406Z,1659.38
2023-03-19T08:44:48.388Z,1805.62
2023-03-19T08:45:48.377Z,1963.12
2023-03-19T08:46:48.403Z,1575.00
2023-03-19T08:47:48.376Z,2053.12
2023-03-19T08:48:48.344Z,2019.38
2023-03-19T08:49:48.330Z,2131.88
2023-03-19T08:50:48.322Z,2058.75
2023-03-19T08:51:48.489Z,2013.75
2023-03-19T08:52:48.323Z,2272.50
2023-03-19T08:53:48.289Z,2205.00
2023-03-19T08:54:48.289Z,1974.38
2023-03-19T08:55:48.276Z,1687.50
2023-03-19T08:56:48.257Z,1895.62
2023-03-19T08:57:48.251Z,2075.62
2023-03-19T08:58:48.248Z,1890.00
2023-03-19T08:59:48.233Z,1620.00
2023-03-19T09:00:48.215Z,1603.12
2023-03-19T09:01:48.254Z,1546.88
2023-03-19T09:02:48.204Z,1220.62
2023-03-19T09:03:48.233Z,1310.62
2023-03-19T09:04:48.208Z,1068.75
2023-03-19T09:05:48.170Z,1085.62
2023-03-19T09:06:48.149Z,1141.88
2023-03-19T09:07:48.139Z,978.75
2023-03-19T09:08:48.128Z,1046.25
2023-03-19T09:09:48.113Z,1035.00
2023-03-19T09:10:49.864Z,815.62
2023-03-19T09:11:48.118Z,1096.88
2023-03-19T09:12:48.672Z,1023.75
2023-03-19T09:13:48.084Z,1068.75
2023-03-19T09:14:48.062Z,1113.75
2023-03-19T09:15:48.062Z,1158.75
2023-03-19T09:16:48.107Z,945.00
2023-03-19T09:17:48.025Z,990.00
2023-03-19T09:18:48.014Z,860.62
2023-03-19T09:19:48.026Z,832.50
2023-03-19T09:20:47.992Z,753.75
2023-03-19T09:21:48.045Z,793.12
2023-03-19T09:22:48.010Z,883.12
2023-03-19T09:23:47.969Z,916.88
2023-03-19T09:24:47.951Z,866.25
2023-03-19T09:25:47.935Z,849.38
2023-03-19T09:26:47.929Z,866.25
2023-03-19T09:27:47.914Z,911.25
2023-03-19T09:28:47.957Z,866.25
2023-03-19T09:29:47.917Z,860.62
2023-03-19T09:30:47.884Z,810.00
2023-03-19T09:31:47.913Z,781.88
2023-03-19T09:32:47.891Z,1085.62
2023-03-19T09:33:47.848Z,838.12
2023-03-19T09:34:47.862Z,894.38
2023-03-19T09:35:47.941Z,894.38
2023-03-19T09:36:47.816Z,922.50
2023-03-19T09:37:47.816Z,787.50
2023-03-19T09:38:47.805Z,793.12
2023-03-19T09:39:47.787Z,838.12
2023-03-19T09:40:47.777Z,849.38
2023-03-19T09:41:47.762Z,826.88
2023-03-19T09:42:47.756Z,871.88
2023-03-19T09:43:47.755Z,950.62
2023-03-19T09:44:47.734Z,804.38
2023-03-19T09:45:47.717Z,1001.25
2023-03-19T09:46:47.791Z,1051.88
2023-03-19T09:47:47.695Z,1001.25
2023-03-19T09:48:47.690Z,1018.12
2023-03-19T09:49:47.695Z,860.62
2023-03-19T09:50:47.677Z,1074.38
2023-03-19T09:51:47.675Z,1237.50
2023-03-19T09:52:47.643Z,1080.00
2023-03-19T09:53:47.638Z,1063.12
2023-03-19T09:54:47.633Z,832.50
2023-03-19T09:55:47.612Z,1035.00
2023-03-19T09:56:47.612Z,961.88
2023-03-19T09:57:47.614Z,1006.88
2023-03-19T09:58:47.582Z,1327.50
2023-03-19T09:59:47.577Z,1243.12
2023-03-19T10:00:47.560Z,1147.50
2023-03-19T10:01:47.628Z,1181.25
2023-03-19T10:02:47.539Z,1170.00
2023-03-19T10:03:47.592Z,1057.50
2023-03-19T10:04:47.533Z,1203.75
2023-03-19T10:05:47.500Z,1023.75
2023-03-19T10:06:47.490Z,1057.50
2023-03-19T10:07:47.517Z,978.75
2023-03-19T10:08:47.470Z,1085.62
2023-03-19T10:09:47.454Z,1102.50
2023-03-19T10:10:47.456Z,1299.38
2023-03-19T10:11:47.433Z,1125.00
2023-03-19T10:12:47.460Z,1113.75
2023-03-19T10:13:47.414Z,1096.88
2023-03-19T10:14:47.404Z,1226.25
2023-03-19T10:15:47.391Z,1366.88
2023-03-19T10:16:47.391Z,1282.50
2023-03-19T10:17:47.381Z,1243.12
2023-03-19T10:18:47.767Z,1524.38
2023-03-19T10:19:47.355Z,1603.12
2023-03-19T10:20:47.338Z,1710.00
2023-03-19T10:21:47.326Z,1620.00
2023-03-19T10:22:47.341Z,1816.88
2023-03-19T10:23:48.741Z,1743.75
2023-03-19T10:24:47.304Z,1687.50
2023-03-19T10:25:47.341Z,1659.38
2023-03-19T10:26:47.272Z,1620.00
2023-03-19T10:27:47.281Z,1260.00
2023-03-19T10:28:47.251Z,1687.50
2023-03-19T10:29:47.291Z,1867.50
2023-03-19T10:30:47.229Z,1771.88
2023-03-19T10:31:47.266Z,1732.50
2023-03-19T10:32:47.268Z,1743.75
2023-03-19T10:33:47.204Z,1890.00
2023-03-19T10:34:47.191Z,1231.88
2023-03-19T10:35:47.326Z,1676.25
2023-03-19T10:36:47.167Z,1490.62
2023-03-19T10:37:47.150Z,1541.25
2023-03-19T10:38:47.144Z,1411.88
2023-03-19T10:39:47.161Z,1383.75
2023-03-19T10:40:47.125Z,1316.25
2023-03-19T10:41:47.158Z,1282.50
2023-03-19T10:42:47.104Z,1220.62
2023-03-19T10:43:47.088Z,1175.62
2023-03-19T10:44:47.084Z,1175.62
2023-03-19T10:45:47.275Z,1220.62
2023-03-19T10:46:47.069Z,1276.88
2023-03-19T10:47:47.076Z,1389.38
2023-03-19T10:48:47.056Z,1445.62
2023-03-19T10:49:47.024Z,1423.12
2023-03-19T10:50:47.020Z,1451.25
2023-03-19T10:51:47.005Z,1530.00
2023-03-19T10:52:47.016Z,1513.12
2023-03-19T10:53:47.001Z,1541.25
2023-03-19T10:54:46.974Z,1535.62
2023-03-19T10:55:46.990Z,1440.00
2023-03-19T10:56:46.969Z,1355.62
2023-03-19T10:57:46.945Z,1327.50
2023-03-19T10:58:46.943Z,1327.50
2023-03-19T10:59:46.922Z,1310.62
2023-03-19T11:00:46.926Z,1260.00
2023-03-19T11:01:46.948Z,1271.25
2023-03-19T11:02:46.890Z,1310.62
2023-03-19T11:03:46.950Z,1327.50
2023-03-19T11:04:46.866Z,1288.12
2023-03-19T11:05:46.853Z,1327.50
2023-03-19T11:06:46.853Z,1293.75
2023-03-19T11:07:46.885Z,1181.25
2023-03-19T11:08:46.823Z,1293.75
2023-03-19T11:09:46.830Z,1445.62
2023-03-19T11:10:46.804Z,1316.25
2023-03-19T11:11:49.117Z,1305.00
2023-03-19T11:12:46.780Z,1350.00
2023-03-19T11:13:46.773Z,1321.88
2023-03-19T11:14:46.760Z,1271.25
2023-03-19T11:15:46.758Z,1344.38
2023-03-19T11:16:46.753Z,1293.75
2023-03-19T11:17:46.720Z,1321.88
2023-03-19T11:18:46.724Z,1321.88
2023-03-19T11:19:46.710Z,1338.75
2023-03-19T11:20:46.693Z,1136.25
2023-03-19T11:21:46.679Z,1288.12
2023-03-19T11:22:46.666Z,1361.25
2023-03-19T11:23:46.660Z,1479.38
2023-03-19T11:24:46.653Z,1490.62
2023-03-19T11:25:46.652Z,1051.88
2023-03-19T11:26:46.619Z,1046.25
2023-03-19T11:27:46.633Z,1226.25
2023-03-19T11:28:46.597Z,1102.50
2023-03-19T11:29:46.588Z,1091.25
2023-03-19T11:30:46.585Z,1113.75
2023-03-19T11:31:46.648Z,1198.12
2023-03-19T11:32:46.681Z,1209.38
2023-03-19T11:33:46.559Z,1153.12
2023-03-19T11:34:46.545Z,1209.38
2023-03-19T11:35:46.542Z,1108.12
2023-03-19T11:36:46.509Z,911.25
2023-03-19T11:37:46.514Z,871.88
2023-03-19T11:38:46.495Z,883.12
2023-03-19T11:39:46.477Z,911.25
2023-03-19T11:40:46.470Z,900.00
2023-03-19T11:41:46.466Z,860.62
2023-03-19T11:42:46.452Z,832.50
2023-03-19T11:43:46.462Z,804.38
2023-03-19T11:44:46.430Z,781.88
2023-03-19T11:45:46.572Z,765.00
2023-03-19T11:46:46.402Z,759.38
2023-03-19T11:47:46.389Z,765.00
2023-03-19T11:48:46.386Z,776.25
2023-03-19T11:49:46.389Z,798.75
2023-03-19T11:50:48.256Z,810.00
2023-03-19T11:51:46.343Z,821.25
2023-03-19T11:52:46.331Z,826.88
2023-03-19T11:53:46.336Z,838.12
2023-03-19T11:54:46.312Z,843.75
2023-03-19T11:55:46.352Z,855.00
2023-03-19T11:56:46.314Z,866.25
2023-03-19T11:57:46.316Z,883.12
2023-03-19T11:58:46.265Z,905.62
2023-03-19T11:59:46.278Z,922.50
2023-03-19T12:00:46.243Z,956.25
2023-03-19T12:01:46.264Z,978.75
2023-03-19T12:02:46.252Z,1001.25
2023-03-19T12:03:46.263Z,995.62
2023-03-19T12:04:46.197Z,973.12
2023-03-19T12:05:46.258Z,928.12
2023-03-19T12:06:46.186Z,888.75
2023-03-19T12:07:46.191Z,883.12
2023-03-19T12:08:46.155Z,877.50
2023-03-19T12:09:46.148Z,866.25
2023-03-19T12:10:46.150Z,855.00
2023-03-19T12:11:46.126Z,838.12
2023-03-19T12:12:46.110Z,804.38
2023-03-19T12:13:46.117Z,793.12
2023-03-19T12:14:46.087Z,781.88
2023-03-19T12:15:46.192Z,781.88
2023-03-19T12:16:46.696Z,765.00
2023-03-19T12:17:46.086Z,770.62
2023-03-19T12:18:46.054Z,781.88
2023-03-19T12:19:46.140Z,759.38
2023-03-19T12:20:46.024Z,753.75
2023-03-19T12:21:46.014Z,748.12
2023-03-19T12:22:45.999Z,753.75
2023-03-19T12:23:45.992Z,759.38
2023-03-19T12:24:45.986Z,759.38
2023-03-19T12:25:46.027Z,742.50
2023-03-19T12:26:45.960Z,736.88
2023-03-19T12:27:45.961Z,753.75
2023-03-19T12:28:45.932Z,894.38
2023-03-19T12:29:45.931Z,753.75
2023-03-19T12:30:45.948Z,731.25
2023-03-19T12:31:45.937Z,714.38
2023-03-19T12:32:45.949Z,686.25
2023-03-19T12:33:45.881Z,669.38
2023-03-19T12:34:45.862Z,658.12
2023-03-19T12:35:45.877Z,635.62
2023-03-19T12:36:45.854Z,624.38
2023-03-19T12:37:45.852Z,624.38
2023-03-19T12:38:45.846Z,618.75
2023-03-19T12:39:45.819Z,613.12
2023-03-19T12:40:45.798Z,613.12
2023-03-19T12:41:45.784Z,613.12
2023-03-19T12:42:45.787Z,613.12
2023-03-19T12:43:45.787Z,607.50
2023-03-19T12:44:45.752Z,607.50
2023-03-19T12:45:45.748Z,607.50
2023-03-19T12:46:45.798Z,596.25
2023-03-19T12:47:45.754Z,585.00